Time;durP1;ratioP1;P1;durP2;ratioP2;P2;SDS_P1;SDS_P2;PMS_P1;PMS_P2;Temp;Humidity;BMP_temperature;BMP_pressure;BME280_temperature;BME280_humidity;BME280_pressure;Samples;Min_cycle;Max_cycle;Signal;HPM_P1;HPM_P2
2023/09/04 00:01:34;;;;;;;0.10;0.10;;;;;;;16.43;100.00;100239.19;5112384;28;20336;-54
2023/09/04 00:04:21;;;;;;;0.10;0.10;;;;;;;16.42;100.00;100241.97;5112432;28;20225;-54
2023/09/04 00:07:08;;;;;;;0.10;0.10;;;;;;;16.35;100.00;100240.69;5112430;28;20261;-54
2023/09/04 00:09:56;;;;;;;0.10;0.10;;;;;;;16.52;100.00;100245.69;5111295;28;20191;-54
2023/09/04 00:12:44;;;;;;;0.10;0.10;;;;;;;16.48;100.00;100236.16;5114582;28;20202;-55
2023/09/04 00:15:32;;;;;;;0.10;0.10;;;;;;;16.24;100.00;100228.94;5116311;28;20194;-55
2023/09/04 00:18:18;;;;;;;0.00;0.00;;;;;;;16.10;100.00;100220.16;5116192;28;20198;-54
2023/09/04 00:21:05;;;;;;;0.10;0.10;;;;;;;16.08;100.00;100228.28;5115863;28;20243;-54
2023/09/04 00:23:52;;;;;;;0.10;0.10;;;;;;;16.03;100.00;100225.94;5114869;28;20206;-54
2023/09/04 00:26:39;;;;;;;0.20;0.20;;;;;;;16.13;100.00;100223.47;5115993;28;20189;-54
2023/09/04 00:29:26;;;;;;;0.10;0.10;;;;;;;15.96;100.00;100221.13;5115713;28;20735;-55
2023/09/04 00:32:14;;;;;;;0.10;0.10;;;;;;;15.62;100.00;100214.53;5115913;28;20293;-54
2023/09/04 00:35:01;;;;;;;0.13;0.13;;;;;;;15.78;100.00;100217.91;5115797;28;20201;-54
2023/09/04 00:37:48;;;;;;;0.10;0.10;;;;;;;15.90;100.00;100208.16;5114873;28;20190;-54
2023/09/04 00:40:35;;;;;;;0.10;0.10;;;;;;;15.73;100.00;100201.34;5113198;28;20226;-54
2023/09/04 00:43:22;;;;;;;0.10;0.10;;;;;;;15.86;100.00;100204.88;5114572;28;20198;-54
2023/09/04 00:46:09;;;;;;;0.10;0.10;;;;;;;15.67;100.00;100215.97;5115598;28;20261;-54
2023/09/04 00:48:57;;;;;;;0.10;0.10;;;;;;;15.65;100.00;100212.53;5115821;28;20201;-53
2023/09/04 00:51:45;;;;;;;0.10;0.10;;;;;;;15.52;100.00;100213.44;5115459;28;20301;-54
2023/09/04 00:54:32;;;;;;;0.00;0.00;;;;;;;15.46;100.00;100214.72;5114214;28;20186;-54
2023/09/04 00:57:20;;;;;;;0.10;0.10;;;;;;;15.35;100.00;100204.75;5114410;28;20193;-54
2023/09/04 01:00:10;;;;;;;0.10;0.10;;;;;;;15.26;100.00;100200.03;5115363;28;20640;-54
2023/09/04 01:03:02;;;;;;;0.10;0.10;;;;;;;15.21;100.00;100201.28;5115399;28;20191;-54
2023/09/04 01:05:50;;;;;;;0.10;0.10;;;;;;;15.24;100.00;100211.75;5113844;28;20230;-54
2023/09/04 01:08:38;;;;;;;0.10;0.10;;;;;;;15.02;100.00;100213.16;5113666;28;20198;-54
2023/09/04 01:11:33;;;;;;;0.10;0.10;;;;;;;15.16;100.00;100205.13;5115404;28;20240;-54
2023/09/04 01:14:21;;;;;;;0.10;0.10;;;;;;;15.42;100.00;100214.03;5115110;28;20201;-54
2023/09/04 01:17:08;;;;;;;0.07;0.07;;;;;;;15.24;100.00;100211.75;5114839;28;20232;-54
2023/09/04 01:19:55;;;;;;;0.10;0.10;;;;;;;15.14;100.00;100206.16;5114894;28;20284;-54
2023/09/04 01:22:43;;;;;;;0.10;0.10;;;;;;;15.30;100.00;100201.53;5114512;28;20255;-54
2023/09/04 01:25:39;;;;;;;0.10;0.10;;;;;;;15.37;100.00;100191.31;5113365;28;20214;-54
2023/09/04 01:28:33;;;;;;;0.10;0.10;;;;;;;15.40;100.00;100199.09;5114586;28;20202;-54
2023/09/04 01:31:25;;;;;;;0.10;0.10;;;;;;;15.37;100.00;100196.63;5114785;28;20210;-55
2023/09/04 01:34:16;;;;;;;0.10;0.10;;;;;;;15.42;100.00;100206.03;5114560;28;20198;-54
2023/09/04 01:37:03;;;;;;;0.10;0.10;;;;;;;15.30;100.00;100201.53;5113605;28;20197;-54
2023/09/04 01:39:54;;;;;;;0.10;0.10;;;;;;;-97.76;100.00;100200.88;5113243;28;20198;-54
2023/09/04 01:42:41;;;;;;;0.10;0.10;;;;;;;15.34;100.00;100195.00;5114329;28;20214;-54
2023/09/04 01:45:28;;;;;;;0.10;0.10;;;;;;;15.15;100.00;100200.75;5114371;28;20220;-54
2023/09/04 01:48:15;;;;;;;0.10;0.10;;;;;;;14.85;100.00;100192.91;5114174;28;20284;-54
2023/09/04 01:51:02;;;;;;;0.10;0.10;;;;;;;14.85;100.00;100192.91;5114350;28;20194;-54
2023/09/04 01:53:49;;;;;;;0.10;0.10;;;;;;;14.92;100.00;100192.53;5113011;28;20202;-54
2023/09/04 01:56:37;;;;;;;0.10;0.10;;;;;;;14.93;100.00;100195.09;5127437;27;20190;-54
2023/09/04 01:59:24;;;;;;;0.10;0.10;;;;;;;14.93;100.00;-17779.31;5112952;28;20198;-54
2023/09/04 02:02:11;;;;;;;0.10;0.10;;;;;;;14.72;100.00;100186.69;5112976;28;20213;-54
2023/09/04 02:04:58;;;;;;;0.10;0.10;;;;;;;14.40;100.00;100191.38;5113493;28;20290;-55
2023/09/04 02:07:45;;;;;;;0.10;0.10;;;;;;;14.52;100.00;100201.28;5112887;28;20224;-54
2023/09/04 02:10:34;;;;;;;0.10;0.10;;;;;;;14.71;100.00;100202.78;5112615;28;20680;-54
2023/09/04 02:13:22;;;;;;;0.10;0.10;;;;;;;14.68;100.00;100203.00;5113697;28;20210;-55
2023/09/04 02:16:10;;;;;;;0.10;0.10;;;;;;;14.68;100.00;100201.19;5112798;28;20197;-55
2023/09/04 02:18:57;;;;;;;0.10;0.10;;;;;;;14.55;100.00;100200.22;5127202;27;20677;-54
2023/09/04 02:21:43;;;;;;;0.10;0.10;;;;;;;14.02;100.00;100197.28;5113311;28;20213;-54
2023/09/04 02:24:32;;;;;;;0.10;0.10;;;;;;;14.12;100.00;100189.59;5112297;28;20194;-54
2023/09/04 02:27:19;;;;;;;0.10;0.10;;;;;;;14.30;100.00;100191.09;5113567;28;20272;-54
2023/09/04 02:30:08;;;;;;;0.10;0.10;;;;;;;14.20;100.00;100186.44;5113451;28;20213;-54
2023/09/04 02:32:58;;;;;;;0.10;0.10;;;;;;;14.19;100.00;100204.25;5113479;28;20182;-54
2023/09/04 02:35:46;;;;;;;0.10;0.10;;;;;;;13.88;100.00;100205.25;5112057;28;20719;-54
2023/09/04 02:38:33;;;;;;;0.10;0.10;;;;;;;13.78;100.00;100209.41;5112115;28;20546;-54
2023/09/04 02:41:20;;;;;;;0.10;0.10;;;;;;;13.91;100.00;100215.75;5113092;28;20190;-54
2023/09/04 02:44:07;;;;;;;0.10;0.10;;;;;;;14.07;100.00;100215.63;5127016;27;20194;-54
2023/09/04 02:46:55;;;;;;;0.10;0.10;;;;;;;14.33;100.00;100206.03;5113257;28;20320;-54
2023/09/04 02:49:42;;;;;;;0.10;0.10;;;;;;;14.19;100.00;100201.56;5113403;28;20198;-54
2023/09/04 02:52:31;;;;;;;0.10;0.10;;;;;;;14.09;100.00;100207.53;5113267;28;20263;-54
2023/09/04 02:55:17;;;;;;;0.10;0.10;;;;;;;14.07;100.00;100204.13;5111883;28;20334;-54
2023/09/04 02:58:04;;;;;;;0.10;0.10;;;;;;;13.79;100.00;100194.28;5113030;28;20326;-54
2023/09/04 03:00:51;;;;;;;0.10;0.10;;;;;;;13.84;100.00;100186.91;5113173;28;20279;-54
2023/09/04 03:03:40;;;;;;;0.10;0.10;;;;;;;13.73;100.00;100185.75;5111649;28;20206;-54
2023/09/04 03:06:27;;;;;;;0.10;0.10;;;;;;;13.81;100.00;100190.63;5113012;28;20263;-54
2023/09/04 03:09:15;;;;;;;0.10;0.10;;;;;;;13.91;100.00;100185.59;5111605;28;20209;-54
2023/09/04 03:12:02;;;;;;;0.03;0.03;;;;;;;13.91;100.00;100185.59;5126585;28;20186;-54
2023/09/04 03:14:56;;;;;;;0.10;0.10;;;;;;;13.72;100.00;100193.81;5113064;28;20751;-54
2023/09/04 03:17:43;;;;;;;0.10;0.10;;;;;;;13.77;100.00;100198.88;5111981;28;20692;-54
2023/09/04 03:20:32;;;;;;;0.10;0.10;;;;;;;13.77;100.00;100198.88;5126359;27;20284;-54
2023/09/04 03:23:18;;;;;;;0.10;0.10;;;;;;;13.63;100.00;100195.25;5111558;28;20217;-54
2023/09/04 03:26:05;;;;;;;0.10;0.10;;;;;;;13.64;100.00;100191.63;5111804;28;20190;-54
2023/09/04 03:28:53;;;;;;;0.10;0.10;;;;;;;13.58;100.00;100194.63;5112960;28;20189;-54
2023/09/04 03:31:41;;;;;;;0.10;0.10;;;;;;;13.60;100.00;100210.50;5112853;28;20251;-54
2023/09/04 03:34:29;;;;;;;0.10;0.10;;;;;;;13.60;100.00;100210.50;5111713;28;20263;-54
2023/09/04 03:37:17;;;;;;;0.10;0.10;;;;;;;13.46;100.00;100212.19;5112727;28;20214;-54
2023/09/04 03:40:21;;;;;;;0.10;0.10;;;;;;;13.90;100.00;100216.69;5111421;28;20190;-54
2023/09/04 03:43:07;;;;;;;0.10;0.10;;;;;;;13.87;100.00;100214.19;5112338;28;20214;-54
2023/09/04 03:45:54;;;;;;;0.10;0.10;;;;;;;13.77;100.00;100205.03;5112700;28;20198;-54
2023/09/04 03:48:41;;;;;;;0.10;0.10;;;;;;;13.72;100.00;100207.16;5116404;28;20194;-54
2023/09/04 03:51:28;;;;;;;0.10;0.10;;;;;;;13.72;100.00;100205.34;5115481;28;20202;-54
2023/09/04 03:54:16;;;;;;;0.10;0.10;;;;;;;13.99;100.00;100204.59;5115275;28;20198;-54
2023/09/04 03:57:03;;;;;;;0.10;0.10;;;;;;;14.06;100.00;100197.94;5116535;28;20214;-54
2023/09/04 03:59:53;;;;;;;0.10;0.10;;;;;;;14.02;100.00;100202.63;5116386;28;20198;-54
2023/09/04 04:02:40;;;;;;;0.10;0.10;;;;;;;13.88;100.00;100202.59;5129736;27;20226;-54
2023/09/04 04:05:27;;;;;;;0.10;0.10;;;;;;;13.47;100.00;100199.75;5114870;28;20295;-54
2023/09/04 04:08:14;;;;;;;0.10;0.10;;;;;;;13.38;100.00;100195.81;5114443;28;20194;-54
2023/09/04 04:11:04;;;;;;;0.10;0.10;;;;;;;13.50;100.00;100202.22;5115225;28;20213;-54
2023/09/04 04:13:51;;;;;;;0.10;0.10;;;;;;;13.60;100.00;100207.84;5116228;28;20195;-54
2023/09/04 04:16:38;;;;;;;0.10;0.10;;;;;;;13.73;100.00;100203.53;5116060;28;20206;-54
2023/09/04 04:19:25;;;;;;;0.10;0.10;;;;;;;13.40;100.00;100206.38;5129517;27;20194;-54
2023/09/04 04:22:12;;;;;;;0.10;0.10;;;;;;;13.45;100.00;100217.63;5129420;27;20194;-54
2023/09/04 04:24:59;;;;;;;0.10;0.10;;;;;;;13.38;100.00;100222.44;5114749;28;20198;-55
2023/09/04 04:27:47;;;;;;;0.10;0.10;;;;;;;13.14;100.00;100221.19;5129779;27;20726;-54
2023/09/04 04:30:35;;;;;;;0.10;0.10;;;;;;;13.18;100.00;100220.91;5114839;28;20300;-54
2023/09/04 04:33:22;;;;;;;0.10;0.10;;;;;;;13.06;100.00;100229.59;5129361;27;20244;-54
2023/09/04 04:36:09;;;;;;;0.10;0.10;;;;;;;13.21;100.00;100224.34;5115818;28;20202;-54
2023/09/04 04:38:56;;;;;;;0.10;0.10;;;;;;;13.15;100.00;100236.19;5113592;28;20193;-54
2023/09/04 04:41:43;;;;;;;0.10;0.10;;;;;;;13.45;100.00;100233.59;5129529;27;20198;-53
2023/09/04 04:44:31;;;;;;;0.10;0.10;;;;;;;13.40;100.00;100230.31;5128952;27;20217;-55
2023/09/04 04:47:18;;;;;;;0.10;0.10;;;;;;;13.30;100.00;100231.81;5114509;28;20194;-54
2023/09/04 04:50:08;;;;;;;0.03;0.03;;;;;;;13.51;100.00;100237.69;5115606;28;20190;-54
2023/09/04 04:52:56;;;;;;;0.10;0.10;;;;;;;13.27;100.00;100235.50;5114519;28;20198;-54
2023/09/04 04:55:43;;;;;;;0.10;0.10;;;;;;;13.42;100.00;100233.78;5114389;28;20194;-54
2023/09/04 04:58:31;;;;;;;0.10;0.10;;;;;;;13.16;100.00;100235.25;5113886;28;20198;-53
2023/09/04 05:01:20;;;;;;;0.10;0.10;;;;;;;13.28;100.00;100229.25;5128879;27;20198;-54
2023/09/04 05:04:07;;;;;;;0.10;0.10;;;;;;;13.31;100.00;100230.84;5114778;28;20222;-54
2023/09/04 05:06:53;;;;;;;0.10;0.10;;;;;;;13.40;100.00;100225.84;5114061;28;20283;-54
2023/09/04 05:09:40;;;;;;;0.10;0.10;;;;;;;13.60;100.00;100232.66;5127193;27;20213;-54
2023/09/04 05:12:28;;;;;;;0.10;0.10;;;;;;;13.58;100.00;100231.06;5113917;28;20269;-54
2023/09/04 05:15:15;;;;;;;0.10;0.10;;;;;;;13.71;100.00;100226.72;5115018;28;20684;-54
2023/09/04 05:18:04;;;;;;;0.10;0.10;;;;;;;13.61;100.00;100230.91;5115071;28;20194;-54
2023/09/04 05:20:51;;;;;;;0.10;0.10;;;;;;;13.63;100.00;100226.34;5115035;28;20193;-54
2023/09/04 05:23:38;;;;;;;0.10;0.10;;;;;;;13.64;100.00;100231.56;5113260;28;20275;-54
2023/09/04 05:26:25;;;;;;;0.10;0.10;;;;;;;13.65;100.00;100232.41;5113258;28;20210;-54
2023/09/04 05:29:12;;;;;;;0.10;0.10;;;;;;;13.69;100.00;100236.59;5114876;28;20271;-54
2023/09/04 05:31:59;;;;;;;0.10;0.10;;;;;;;13.77;100.00;100231.66;5114615;28;20252;-54
2023/09/04 05:34:47;;;;;;;0.10;0.10;;;;;;;13.83;100.00;100227.78;5114705;28;20304;-54
2023/09/04 05:37:34;;;;;;;0.10;0.10;;;;;;;13.97;100.00;100226.00;5114356;28;20233;-54
2023/09/04 05:40:21;;;;;;;0.10;0.10;;;;;;;13.82;100.00;100226.09;5113201;28;20205;-55
2023/09/04 05:43:08;;;;;;;0.10;0.10;;;;;;;14.00;100.00;100231.16;5114462;28;20205;-55
2023/09/04 05:45:54;;;;;;;0.10;0.10;;;;;;;14.06;100.00;100232.56;5114343;28;20295;-55
2023/09/04 05:48:41;;;;;;;0.10;0.10;;;;;;;14.07;100.00;100226.28;5114313;28;20279;-54
2023/09/04 05:51:30;;;;;;;0.10;0.10;;;;;;;13.92;100.00;100227.25;5114219;28;20255;-54
2023/09/04 05:54:17;;;;;;;0.10;0.10;;;;;;;13.92;100.00;100227.25;5113069;28;20194;-54
2023/09/04 05:57:04;;;;;;;0.10;0.10;;;;;;;14.10;100.00;100219.94;5114208;28;20237;-54
2023/09/04 05:59:52;;;;;;;0.10;0.10;;;;;;;14.18;100.00;100226.47;5114222;28;20195;-54
2023/09/04 06:02:38;;;;;;;0.10;0.10;;;;;;;13.94;100.00;100228.00;5127741;27;20185;-54
2023/09/04 06:05:25;;;;;;;0.10;0.10;;;;;;;14.24;100.00;100226.13;5113815;28;20230;-55
2023/09/04 06:08:13;;;;;;;0.10;0.10;;;;;;;14.29;100.00;100223.19;5113059;28;20212;-55
2023/09/04 06:11:00;;;;;;;0.10;0.10;;;;;;;14.53;100.00;100227.00;5113175;28;20275;-54
2023/09/04 06:13:48;;;;;;;0.10;0.10;;;;;;;14.56;100.00;100226.78;5113879;28;20240;-54
2023/09/04 06:16:35;;;;;;;0.10;0.10;;;;;;;14.73;100.00;100220.38;5113757;28;20230;-54
2023/09/04 06:19:22;;;;;;;0.10;0.10;;;;;;;14.65;100.00;100220.03;5113690;28;20193;-55
2023/09/04 06:22:09;;;;;;;0.10;0.10;;;;;;;14.91;100.00;100217.50;5113656;28;20193;-54
2023/09/04 06:24:57;;;;;;;0.20;0.20;;;;;;;15.15;100.00;100214.09;5112285;28;20729;-54
2023/09/04 06:27:45;;;;;;;0.10;0.10;;;;;;;15.08;100.00;100211.91;5113428;28;20209;-54
2023/09/04 06:30:31;;;;;;;0.10;0.10;;;;;;;15.11;100.00;100209.91;5113640;28;20239;-54
2023/09/04 06:33:18;;;;;;;0.10;0.10;;;;;;;15.14;100.00;100204.34;5113585;28;20684;-54
2023/09/04 06:36:05;;;;;;;0.10;0.10;;;;;;;15.37;100.00;100207.31;5113348;28;20197;-54
2023/09/04 06:38:52;;;;;;;0.10;0.10;;;;;;;15.74;100.00;100200.38;5112207;28;20199;-55
2023/09/04 06:41:40;;;;;;;0.10;0.10;;;;;;;15.73;100.00;100202.19;5126858;27;20283;-54
2023/09/04 06:44:27;;;;;;;0.10;0.10;;;;;;;15.79;100.00;100202.72;5113086;28;20218;-54
2023/09/04 06:47:14;;;;;;;0.10;0.10;;;;;;;15.85;100.00;100208.50;5113183;28;20197;-54
2023/09/04 06:50:01;;;;;;;0.10;0.10;;;;;;;15.93;100.00;100216.84;5113261;28;20197;-54
2023/09/04 06:52:48;;;;;;;0.10;0.10;;;;;;;16.04;100.00;100208.09;5113246;28;20206;-55
2023/09/04 06:55:35;;;;;;;0.10;0.10;;;;;;;16.12;100.00;100216.44;5112749;28;20534;-55
2023/09/04 06:58:24;;;;;;;0.10;0.10;;;;;;;16.29;100.00;100208.03;5113060;28;20195;-55
2023/09/04 07:01:11;;;;;;;0.10;0.10;;;;;;;16.63;100.00;100208.31;5112967;28;20275;-54
2023/09/04 07:03:58;;;;;;;0.10;0.10;;;;;;;16.71;100.00;100202.47;5112821;28;20283;-55
2023/09/04 07:06:45;;;;;;;0.10;0.10;;;;;;;16.86;100.00;100212.88;5113003;28;20712;-54
2023/09/04 07:09:32;;;;;;;0.10;0.10;;;;;;;16.97;100.00;100212.09;5111438;28;20206;-54
2023/09/04 07:12:19;;;;;;;0.10;0.10;;;;;;;17.22;100.00;100207.59;5112952;28;20747;-55
2023/09/04 07:15:09;;;;;;;0.10;0.10;;;;;;;17.49;100.00;100220.75;5113016;28;20214;-55
2023/09/04 07:17:55;;;;;;;0.10;0.10;;;;;;;17.53;100.00;100214.19;5112882;28;20189;-55
2023/09/04 07:20:42;;;;;;;0.10;0.10;;;;;;;17.87;100.00;100208.00;5113736;28;20197;-55
2023/09/04 07:23:29;;;;;;;0.10;0.10;;;;;;;18.23;100.00;100206.91;5115904;28;20244;-55
2023/09/04 07:26:16;;;;;;;0.10;0.10;;;;;;;18.27;100.00;100200.34;5117141;28;20231;-55
2023/09/04 07:29:03;;;;;;;0.10;0.10;;;;;;;18.31;100.00;100191.06;5117196;28;20193;-55
2023/09/04 07:31:53;;;;;;;0.10;0.10;;;;;;;18.25;100.00;100188.91;5117154;28;20236;-55
2023/09/04 07:34:40;;;;;;;0.10;0.10;;;;;;;18.46;100.00;100182.78;5116776;28;20195;-55
2023/09/04 07:37:27;;;;;;;0.10;0.10;;;;;;;18.80;100.00;100176.41;5116937;28;20185;-55
2023/09/04 07:40:14;;;;;;;0.10;0.10;;;;;;;18.62;100.00;100175.19;5115546;28;20324;-54
2023/09/04 07:43:02;;;;;;;0.10;0.10;;;;;;;18.85;100.00;100176.03;5116756;28;20221;-55
2023/09/04 07:45:49;;;;;;;0.10;0.10;;;;;;;18.86;100.00;100178.59;5116528;28;20229;-55
2023/09/04 07:48:37;;;;;;;0.10;0.10;;;;;;;19.22;100.00;100171.16;5116729;28;20260;-55
2023/09/04 07:51:24;;;;;;;0.10;0.10;;;;;;;19.45;100.00;100172.75;5116590;28;20202;-55
2023/09/04 07:54:21;;;;;;;0.10;0.10;;;;;;;19.42;100.00;100174.88;5115252;28;20182;-55
2023/09/04 07:57:08;;;;;;;0.10;0.10;;;;;;;19.37;100.00;100172.53;5116717;28;20186;-55
2023/09/04 07:59:55;;;;;;;0.00;0.00;;;;;;;19.80;100.00;100182.38;5116312;28;20328;-55
2023/09/04 08:02:43;;;;;;;0.10;0.10;;;;;;;20.00;100.00;100178.81;5115466;28;20189;-55
2023/09/04 08:05:31;;;;;;;0.10;0.10;;;;;;;20.14;100.00;100176.75;5116001;28;20234;-55
2023/09/04 08:08:18;;;;;;;0.10;0.10;;;;;;;20.06;100.00;100176.56;5115122;28;20189;-55
2023/09/04 08:11:05;;;;;;;0.10;0.10;;;;;;;20.41;100.00;100176.16;5116442;28;20198;-55
2023/09/04 08:13:52;;;;;;;0.10;0.10;;;;;;;20.77;100.00;100181.00;5116219;28;20239;-55
2023/09/04 08:16:39;;;;;;;0.10;0.10;;;;;;;20.84;100.00;100170.50;5116208;28;20680;-55
2023/09/04 08:19:26;;;;;;;0.10;0.10;;;;;;;20.86;100.00;100177.47;5116019;28;20506;-55
2023/09/04 08:22:14;;;;;;;0.10;0.10;;;;;;;21.07;100.00;100185.44;5115956;28;20202;-55
2023/09/04 08:25:01;;;;;;;0.10;0.10;;;;;;;20.97;100.00;100176.50;5114058;28;20225;-55
2023/09/04 08:27:48;;;;;;;0.10;0.10;;;;;;;21.08;100.00;100180.91;5115816;28;20202;-55
2023/09/04 08:30:35;;;;;;;0.10;0.10;;;;;;;21.37;100.00;100171.00;5116001;28;20194;-55
2023/09/04 08:33:22;;;;;;;0.10;0.10;;;;;;;21.47;100.00;100171.00;5115135;28;20308;-55
2023/09/04 08:36:10;;;;;;;0.10;0.10;;;;;;;21.45;100.00;100164.91;5115847;28;20190;-55
2023/09/04 08:38:59;;;;;;;0.10;0.10;;;;;;;21.59;100.00;100175.25;5114548;28;20217;-55
2023/09/04 08:41:46;;;;;;;0.10;0.10;;;;;;;21.92;100.00;100173.06;5115673;28;20268;-55
2023/09/04 08:44:36;;;;;;;0.10;0.10;;;;;;;22.04;100.00;100179.97;5115512;28;20293;-55
2023/09/04 08:47:23;;;;;;;0.10;0.10;;;;;;;22.08;100.00;100178.72;5115592;28;20251;-55
2023/09/04 08:50:11;;;;;;;0.10;0.10;;;;;;;22.24;100.00;100164.59;5115598;28;20191;-55
2023/09/04 08:52:58;;;;;;;0.10;0.10;;;;;;;22.26;100.00;100171.53;5115577;28;20609;-55
2023/09/04 08:55:47;;;;;;;0.10;0.10;;;;;;;22.45;100.00;100165.22;5114134;28;20189;-55
2023/09/04 08:58:34;;;;;;;0.10;0.10;;;;;;;22.45;100.00;100161.66;5114189;28;20233;-55
2023/09/04 09:01:22;;;;;;;0.10;0.10;;;;;;;22.60;100.00;100165.56;5114726;28;20739;-55
2023/09/04 09:04:10;;;;;;;0.10;0.10;;;;;;;22.68;100.00;100157.56;5115351;28;20225;-55
2023/09/04 09:06:58;;;;;;;0.10;0.10;;;;;;;22.75;100.00;100157.78;5115502;28;20198;-55
2023/09/04 09:09:50;;;;;;;0.10;0.10;;;;;;;22.98;100.00;100160.97;5114130;28;20198;-55
2023/09/04 09:12:38;;;;;;;0.10;0.10;;;;;;;22.96;100.00;100158.41;5114652;28;20700;-55
2023/09/04 09:15:26;;;;;;;0.10;0.10;;;;;;;23.17;100.00;100158.13;5115419;28;20190;-55
2023/09/04 09:18:13;;;;;;;0.10;0.10;;;;;;;23.39;98.91;100159.50;5115344;28;20248;-55
2023/09/04 09:21:00;;;;;;;0.10;0.10;;;;;;;23.53;98.66;100160.78;5114004;28;20313;-55
2023/09/04 09:23:47;;;;;;;0.10;0.10;;;;;;;23.90;99.32;100156.00;5113471;28;20206;-55
2023/09/04 09:26:34;;;;;;;0.10;0.10;;;;;;;23.94;92.50;100151.16;5114658;28;20210;-55
2023/09/04 09:29:25;;;;;;;0.10;0.10;;;;;;;24.44;91.21;100147.72;5114566;28;20317;-55
2023/09/04 09:32:12;;;;;;;0.10;0.10;;;;;;;24.42;92.37;100149.75;5115124;28;20198;-55
2023/09/04 09:35:01;;;;;;;0.10;0.10;;;;;;;24.55;89.83;100145.56;5114987;28;20201;-55
2023/09/04 09:37:48;;;;;;;0.10;0.10;;;;;;;24.80;89.01;100140.19;5114633;28;20198;-55
2023/09/04 09:40:35;;;;;;;0.10;0.10;;;;;;;25.18;83.21;100140.63;5114989;28;20236;-55
2023/09/04 09:43:21;;;;;;;0.10;0.10;;;;;;;25.26;81.56;100132.50;5113699;28;20194;-55
2023/09/04 09:46:16;;;;;;;0.00;0.00;;;;;;;25.28;80.49;100136.72;5113494;28;20225;-55
2023/09/04 09:49:03;;;;;;;0.10;0.10;;;;;;;25.02;82.48;100128.75;5114694;28;20224;-55
2023/09/04 09:51:53;;;;;;;0.10;0.10;;;;;;;25.62;81.29;100131.13;5114536;28;20198;-55
2023/09/04 09:54:41;;;;;;;0.08;0.08;;;;;;;26.09;76.17;100135.00;5113003;28;20228;-55
2023/09/04 09:57:30;;;;;;;0.03;0.03;;;;;;;26.20;72.25;100123.75;5114585;28;20209;-55
2023/09/04 10:00:18;;;;;;;0.10;0.10;;;;;;;26.77;69.61;100129.78;5114479;28;20198;-55
2023/09/04 10:03:06;;;;;;;0.08;0.08;;;;;;;26.73;69.93;100114.00;5114271;28;20681;-55
2023/09/04 10:05:55;;;;;;;0.00;0.00;;;;;;;27.06;74.12;100120.13;5113882;28;20230;-55
2023/09/04 10:08:45;;;;;;;0.00;0.00;;;;;;;27.50;68.17;100119.41;5112996;28;20197;-56
2023/09/04 10:11:33;;;;;;;0.03;0.03;;;;;;;27.84;65.14;100108.06;5114067;28;20197;-55
2023/09/04 10:14:28;;;;;;;0.10;0.10;;;;;;;27.58;64.33;100113.88;5113759;28;20269;-56
2023/09/04 10:17:19;;;;;;;0.00;0.00;;;;;;;28.00;64.00;100110.59;5114061;28;20202;-56
2023/09/04 10:20:09;;;;;;;0.10;0.10;;;;;;;27.84;60.89;100111.63;5113299;28;20228;-56
2023/09/04 10:23:03;;;;;;;0.00;0.00;;;;;;;27.98;59.01;100104.47;5114188;28;20248;-55
2023/09/04 10:25:54;;;;;;;0.08;0.08;;;;;;;28.66;58.16;100100.59;5113510;28;20360;-55
2023/09/04 10:28:42;;;;;;;0.00;0.00;;;;;;;30.78;48.91;100096.75;5113702;28;20681;-55
2023/09/04 10:31:34;;;;;;;0.00;0.00;;;;;;;32.81;40.80;100095.03;5113646;28;20210;-56
2023/09/04 10:34:21;;;;;;;0.00;0.00;;;;;;;33.46;38.60;100092.94;5113100;28;20194;-56
2023/09/04 10:37:13;;;;;;;0.00;0.00;;;;;;;35.82;36.19;100089.22;5113678;28;20193;-56
2023/09/04 10:40:00;;;;;;;0.00;0.00;;;;;;;35.63;35.46;100088.50;5111915;28;20240;-56
2023/09/04 10:42:49;;;;;;;0.00;0.00;;;;;;;36.63;33.75;100081.88;5113559;28;20328;-56
2023/09/04 10:45:35;;;;;;;0.00;0.00;;;;;;;36.18;34.27;100078.97;5112984;28;20205;-56
2023/09/04 10:48:41;;;;;;;0.00;0.00;;;;;;;37.61;32.21;100077.00;5113180;28;20302;-57
2023/09/04 10:51:30;;;;;;;0.00;0.00;;;;;;;36.02;35.08;100072.31;5113528;28;20684;-56
2023/09/04 10:54:27;;;;;;;0.00;0.00;;;;;;;37.30;31.82;100072.94;5112010;28;20194;-56
2023/09/04 10:57:15;;;;;;;0.00;0.00;;;;;;;38.58;30.01;100073.66;5113032;28;20190;-56
2023/09/04 11:00:03;;;;;;;0.00;0.00;;;;;;;36.17;32.70;100071.78;5113543;28;20260;-57
2023/09/04 11:02:50;;;;;;;0.00;0.00;;;;;;;36.88;32.38;100073.28;5111656;28;20340;-56
2023/09/04 11:06:11;;;;;;;0.00;0.00;;;;;;;38.35;30.39;100070.09;5112591;28;20295;-56
2023/09/04 11:09:02;;;;;;;0.00;0.00;;;;;;;38.87;29.68;100063.19;5111710;28;20221;-56
2023/09/04 11:11:58;;;;;;;0.00;0.00;;;;;;;39.67;29.23;100061.41;5112963;28;20193;-56
2023/09/04 11:14:46;;;;;;;0.00;0.00;;;;;;;39.33;29.43;100055.31;5113061;28;20202;-57
2023/09/04 11:17:33;;;;;;;0.00;0.00;;;;;;;42.11;27.19;100053.53;5113449;28;20197;-57
2023/09/04 11:20:26;;;;;;;0.00;0.00;;;;;;;39.84;27.82;100042.63;5113317;28;20209;-57
2023/09/04 11:23:14;;;;;;;0.00;0.00;;;;;;;41.20;25.76;100040.56;5111446;28;20205;-57
2023/09/04 11:26:02;;;;;;;0.00;0.00;;;;;;;41.02;25.51;100038.31;5112199;28;20206;-57
2023/09/04 11:28:50;;;;;;;0.00;0.00;;;;;;;41.41;25.64;100030.28;5112068;28;20205;-57
2023/09/04 11:31:38;;;;;;;0.00;0.00;;;;;;;39.53;27.27;100030.50;5113150;28;20193;-57
2023/09/04 11:34:26;;;;;;;0.00;0.00;;;;;;;41.60;25.73;100024.94;5112350;28;20304;-57
2023/09/04 11:37:13;;;;;;;0.00;0.00;;;;;;;39.54;27.84;100025.78;5112971;28;20197;-57
2023/09/04 11:40:01;;;;;;;0.00;0.00;;;;;;;40.24;25.14;100016.19;5111411;28;20198;-57
2023/09/04 11:42:56;;;;;;;0.00;0.00;;;;;;;42.50;22.65;100022.13;5112942;28;20193;-57
2023/09/04 11:45:45;;;;;;;0.00;0.00;;;;;;;40.60;23.17;100014.38;5112001;28;20296;-56
2023/09/04 11:48:32;;;;;;;0.00;0.00;;;;;;;38.80;24.98;100015.44;5113014;28;20719;-56
2023/09/04 11:51:19;;;;;;;0.00;0.00;;;;;;;40.32;23.81;100018.44;5112543;28;20186;-57
2023/09/04 11:54:06;;;;;;;0.00;0.00;;;;;;;42.17;22.77;100018.94;5111686;28;20550;-57
2023/09/04 11:56:53;;;;;;;0.00;0.00;;;;;;;40.19;23.84;100013.41;5111959;28;20345;-57
2023/09/04 11:59:43;;;;;;;0.00;0.00;;;;;;;41.37;22.00;100004.97;5112213;28;20213;-56
2023/09/04 12:02:31;;;;;;;0.00;0.00;;;;;;;39.78;22.75;99993.78;5112889;28;20195;-57
2023/09/04 12:05:20;;;;;;;0.00;0.00;;;;;;;41.31;21.82;99994.13;5112566;28;20225;-56
2023/09/04 12:08:07;;;;;;;0.00;0.00;;;;;;;40.49;22.86;99994.06;5112425;28;20244;-57
2023/09/04 12:10:54;;;;;;;0.00;0.00;;;;;;;40.67;22.23;99987.16;5116797;28;20201;-57
2023/09/04 12:13:42;;;;;;;0.00;0.00;;;;;;;40.10;22.33;99990.88;5116675;28;20197;-56
2023/09/04 12:16:29;;;;;;;0.00;0.00;;;;;;;41.23;21.04;99980.78;5116332;28;20229;-56
2023/09/04 12:19:23;;;;;;;0.00;0.00;;;;;;;41.85;21.59;99991.50;5116455;28;20186;-57
2023/09/04 12:22:11;;;;;;;0.00;0.00;;;;;;;40.74;21.64;99986.88;5115969;28;20205;-57
2023/09/04 12:25:00;;;;;;;0.00;0.00;;;;;;;40.90;21.34;99980.22;5114999;28;20304;-57
2023/09/04 12:27:49;;;;;;;0.00;0.00;;;;;;;40.58;21.73;99977.69;5115813;28;20254;-56
2023/09/04 12:30:40;;;;;;;0.00;0.00;;;;;;;40.86;21.13;99973.56;5116256;28;20197;-56
2023/09/04 12:33:29;;;;;;;0.00;0.00;;;;;;;40.38;22.15;99961.78;5115925;28;20661;-57
2023/09/04 12:36:20;;;;;;;0.00;0.00;;;;;;;41.05;21.59;99969.13;5116090;28;20201;-56
2023/09/04 12:39:07;;;;;;;0.00;0.00;;;;;;;39.33;22.77;99963.81;5114372;28;20315;-56
2023/09/04 12:41:56;;;;;;;0.00;0.00;;;;;;;39.89;23.21;99958.56;5116123;28;20197;-56
2023/09/04 12:44:42;;;;;;;0.00;0.00;;;;;;;39.17;22.92;99955.38;5115668;28;20201;-57
2023/09/04 12:47:29;;;;;;;0.00;0.00;;;;;;;42.10;21.01;99951.56;5115233;28;20222;-56
2023/09/04 12:50:16;;;;;;;0.00;0.00;;;;;;;42.17;20.83;99940.13;5115754;28;20202;-56
2023/09/04 12:53:04;;;;;;;0.00;0.00;;;;;;;42.72;20.39;99946.47;5114232;28;20216;-57
2023/09/04 12:55:51;;;;;;;0.00;0.00;;;;;;;42.68;19.92;99937.03;5115781;28;20190;-57